Time;durP1;ratioP1;P1;durP2;ratioP2;P2;SDS_P1;SDS_P2;PMS_P1;PMS_P2;Temp;Humidity;BMP_temperature;BMP_pressure;BME280_temperature;BME280_humidity;BME280_pressure;Samples;Min_cycle;Max_cycle;Signal;HPM_P1;HPM_P2
2022/03/27 07:56:49;;;;;;;26.73;15.47;;;;;;;;;;5134686;27;20488;-83
2022/03/27 07:59:15;;;;;;;30.90;16.20;;;;;;;;;;5114360;27;21073;-84
2022/03/27 08:01:41;;;;;;;30.57;16.10;;;;;;;;;;5034615;28;20224;-83
2022/03/27 08:04:07;;;;;;;25.30;16.60;;;;;;;;;;5028059;28;20179;-84
2022/03/27 08:06:36;;;;;;;29.73;16.67;;;;;;;;;;5029487;28;20187;-80
2022/03/27 08:09:06;;;;;;;35.27;16.57;;;11.60;92.40;;;;;;5041984;28;20615;-79
2022/03/27 08:11:32;;;;;;;31.27;17.07;;;11.40;92.60;;;;;;5032244;28;20201;-82
2022/03/27 08:14:04;;;;;;;29.00;17.30;;;11.30;92.80;;;;;;5035857;28;20224;-81
2022/03/27 08:16:56;;;;;;;21.70;15.03;;;11.40;92.20;;;;;;5037684;28;20636;-80
2022/03/27 08:23:03;;;;;;;29.40;17.03;;;11.40;92.50;;;;;;5185448;23;20226;-83
2022/03/27 08:31:40;;;;;;;29.17;16.10;;;11.70;92.10;;;;;;5014404;28;20263;-83
2022/03/27 08:34:06;;;;;;;27.80;15.57;;;11.80;92.00;;;;;;5015672;28;20550;-82
2022/03/27 08:36:32;;;;;;;32.97;16.77;;;11.70;92.10;;;;;;5017159;28;20179;-83
2022/03/27 08:38:59;;;;;;;31.10;15.77;;;11.70;92.30;;;;;;5032111;28;20179;-81
2022/03/27 08:41:28;;;;;;;27.30;16.30;;;11.70;92.50;;;;;;5015645;28;20548;-83
2022/03/27 08:44:01;;;;;;;29.10;17.00;;;12.10;93.10;;;;;;5018917;28;20270;-84
2022/03/27 08:46:28;;;;;;;27.97;16.90;;;11.80;92.00;;;;;;5018606;28;20238;-83
2022/03/27 08:49:02;;;;;;;29.77;16.80;;;12.00;92.40;;;;;;5018029;28;20177;-83
2022/03/27 08:55:36;;;;;;;25.70;16.57;;;14.10;92.30;;;;;;5075123;28;20503;-79
2022/03/27 08:58:14;;;;;;;34.20;16.73;;;13.00;91.70;;;;;;5070937;28;20231;-83
2022/03/27 09:03:28;;;;;;;27.47;16.03;;;12.40;91.90;;;;;;5119900;22;20243;-79
2022/03/27 09:05:59;;;;;;;30.27;17.37;;;12.40;91.80;;;;;;5077096;28;20205;-79
2022/03/27 09:08:35;;;;;;;28.37;17.33;;;12.50;92.10;;;;;;5077981;28;20186;-80
2022/03/27 09:11:32;;;;;;;31.60;16.00;;;12.60;92.20;;;;;;5078060;28;20196;-80
2022/03/27 09:21:10;;;;;;;32.33;16.97;;;12.80;91.40;;;;;;5194028;23;20238;-83
2022/03/27 09:24:25;;;;;;;;;;;;;;;;;;;;;
2022/03/27 09:27:07;;;;;;;24.03;15.67;;;12.90;92.40;;;;;;5057610;28;20273;-85
2022/03/27 09:30:14;;;;;;;29.53;17.17;;;13.00;91.40;;;;;;5059171;28;20182;-84
2022/03/27 09:32:53;;;;;;;24.97;15.97;;;13.20;92.10;;;;;;5058269;28;20202;-81
2022/03/27 09:35:26;;;;;;;30.73;16.97;;;13.30;92.30;;;;;;5057598;28;20200;-83
2022/03/27 09:38:21;;;;;;;24.23;16.60;;;13.60;91.00;;;;;;5057724;28;20207;-81
2022/03/27 09:40:50;;;;;;;28.17;16.83;;;13.40;90.50;;;;;;5057855;28;20206;-85
2022/03/27 09:43:26;;;;;;;30.90;17.93;;;13.40;91.00;;;;;;5060159;28;20225;-85
2022/03/27 09:46:08;;;;;;;29.33;17.17;;;13.40;91.30;;;;;;5058573;28;20186;-80
2022/03/27 09:49:01;;;;;;;30.30;17.13;;;13.50;92.20;;;;;;5060192;28;20184;-84
2022/03/27 09:51:30;;;;;;;27.30;16.87;;;13.60;90.70;;;;;;5115822;22;20296;-83
2022/03/27 10:01:11;;;;;;;28.10;17.13;;;13.90;90.70;;;;;;5062700;28;20231;-81
2022/03/27 10:04:08;;;;;;;31.57;17.27;;;14.00;90.40;;;;;;5072132;28;20293;-82
2022/03/27 10:06:44;;;;;;;29.37;17.70;;;13.80;89.70;;;;;;5060584;28;20174;-83
2022/03/27 10:09:17;;;;;;;28.87;17.67;;;13.80;90.50;;;;;;5048966;28;20158;-83
2022/03/27 10:11:43;;;;;;;31.77;18.27;;;13.80;89.70;;;;;;5058590;28;20261;-84
2022/03/27 10:14:27;;;;;;;29.37;18.37;;;14.10;90.10;;;;;;5062349;28;20175;-80
2022/03/27 10:17:20;;;;;;;30.13;18.50;;;14.20;89.90;;;;;;5062310;28;20629;-81
2022/03/27 10:20:22;;;;;;;27.30;17.47;;;14.30;90.30;;;;;;5054642;28;20186;-80
2022/03/27 10:23:27;;;;;;;25.77;17.27;;;14.50;90.00;;;;;;5051734;28;20208;-80
2022/03/27 10:25:55;;;;;;;29.40;18.17;;;14.80;89.10;;;;;;5060368;28;20174;-84
2022/03/27 10:28:22;;;;;;;28.37;17.57;;;14.80;88.30;;;;;;5059518;28;20506;-83
2022/03/27 10:30:54;;;;;;;27.07;17.03;;;14.80;89.00;;;;;;5076865;22;20214;-83
2022/03/27 10:33:31;;;;;;;27.63;17.83;;;14.80;87.70;;;;;;5060296;28;20202;-81
2022/03/27 10:36:13;;;;;;;30.47;18.33;;;14.90;87.40;;;;;;5061718;28;20181;-82
2022/03/27 10:39:08;;;;;;;29.43;18.70;;;15.10;87.20;;;;;;5061810;28;20180;-83
2022/03/27 10:41:50;;;;;;;28.40;18.07;;;15.20;86.40;;;;;;5060340;28;20209;-83
2022/03/27 10:45:42;;;;;;;29.30;17.60;;;15.40;89.00;;;;;;5048607;28;20546;-83
2022/03/27 10:48:03;;;;;;;29.33;17.63;;;15.40;86.90;;;;;;5037523;28;20242;-83
2022/03/27 10:50:29;;;;;;;31.97;17.70;;;15.40;87.50;;;;;;5060696;28;20182;-86
2022/03/27 10:53:00;;;;;;;26.63;17.70;;;15.80;87.00;;;;;;5059370;28;20181;-85
2022/03/27 10:55:41;;;;;;;27.40;17.03;;;16.00;86.60;;;;;;5061495;28;20235;-84
2022/03/27 10:58:31;;;;;;;25.97;16.93;;;16.30;87.60;;;;;;5058298;28;20185;-85
2022/03/27 11:00:59;;;;;;;27.10;16.87;;;16.30;86.70;;;;;;5057062;28;20224;-82
2022/03/27 11:03:49;;;;;;;27.47;18.07;;;16.30;88.10;;;;;;5060340;28;20260;-84
2022/03/27 11:06:26;;;;;;;27.73;17.30;;;16.70;85.10;;;;;;5031042;28;20204;-84
2022/03/27 11:08:54;;;;;;;26.50;17.40;;;16.80;86.20;;;;;;5061386;28;20198;-81
2022/03/27 11:11:49;;;;;;;29.77;17.47;;;16.60;85.10;;;;;;5060912;28;20707;-81
2022/03/27 11:14:23;;;;;;;29.77;18.83;;;16.60;86.60;;;;;;5060058;28;20205;-83
2022/03/27 11:17:10;;;;;;;34.53;20.13;;;16.30;83.70;;;;;;5061458;28;20174;-83
2022/03/27 11:19:49;;;;;;;29.00;19.27;;;16.50;87.80;;;;;;5064897;28;20228;-83
2022/03/27 11:22:52;;;;;;;27.43;18.70;;;17.20;83.90;;;;;;5063229;28;20202;-84
2022/03/27 11:25:31;;;;;;;27.43;18.77;;;17.30;83.40;;;;;;5061164;28;20173;-83
2022/03/27 11:28:07;;;;;;;23.30;16.93;;;17.30;85.50;;;;;;5062216;28;20183;-83
2022/03/27 11:30:54;;;;;;;31.77;19.57;;;17.30;85.80;;;;;;5060547;28;20180;-83
2022/03/27 11:33:21;;;;;;;29.40;18.17;;;17.50;83.80;;;;;;5045825;28;20208;-84
2022/03/27 11:36:07;;;;;;;26.20;18.47;;;17.40;83.60;;;;;;5063701;28;20170;-84
2022/03/27 11:39:15;;;;;;;26.63;18.23;;;17.50;83.80;;;;;;5064442;28;20667;-83
2022/03/27 11:41:55;;;;;;;26.17;17.27;;;17.90;82.60;;;;;;4980461;28;20230;-83
2022/03/27 11:44:24;;;;;;;30.67;18.63;;;18.20;85.10;;;;;;4984110;28;20184;-83
2022/03/27 11:46:59;;;;;;;29.50;18.73;;;17.90;82.80;;;;;;5032583;28;20570;-85
2022/03/27 11:49:37;;;;;;;32.43;18.70;;;18.10;82.10;;;;;;5061723;28;20713;-83
2022/03/27 11:52:22;;;;;;;25.30;17.03;;;18.40;81.80;;;;;;5061575;28;20205;-83
2022/03/27 11:55:19;;;;;;;25.33;17.53;;;18.40;82.00;;;;;;5059702;28;20265;-84
2022/03/27 11:57:57;;;;;;;27.33;17.97;;;18.70;80.90;;;;;;5055884;28;20192;-82
2022/03/27 12:00:48;;;;;;;25.77;17.73;;;18.70;80.80;;;;;;5060825;28;20535;-82
2022/03/27 12:03:22;;;;;;;26.00;17.30;;;18.80;84.00;;;;;;5061521;28;20177;-83
2022/03/27 12:05:53;;;;;;;27.53;17.03;;;18.90;81.20;;;;;;5060546;28;20192;-84
2022/03/27 12:08:19;;;;;;;26.53;17.27;;;19.10;79.40;;;;;;5060213;28;20173;-83
2022/03/27 12:10:57;;;;;;;24.40;16.90;;;19.00;78.80;;;;;;5059209;28;20177;-83
2022/03/27 12:13:27;;;;;;;28.00;17.77;;;19.00;78.10;;;;;;5057579;28;20235;-84
2022/03/27 12:16:05;;;;;;;;;;;;;;;;;;;;;
2022/03/27 12:18:39;;;;;;;24.60;16.77;;;18.90;81.40;;;;;;5060671;28;20273;-83
2022/03/27 12:21:09;;;;;;;23.60;16.83;;;19.10;78.00;;;;;;5060528;28;20212;-83
2022/03/27 12:23:38;;;;;;;39.87;17.23;;;19.30;79.80;;;;;;5058845;28;20674;-83
2022/03/27 12:29:40;;;;;;;25.83;18.67;;;19.60;78.10;;;;;;5048450;28;20177;-84
2022/03/27 12:32:13;;;;;;;26.57;17.80;;;19.80;77.80;;;;;;5051136;28;20221;-83
2022/03/27 12:34:47;;;;;;;24.73;17.20;;;19.50;78.10;;;;;;5059055;28;20204;-83
2022/03/27 12:37:21;;;;;;;27.07;17.90;;;18.90;77.70;;;;;;5059826;28;20253;-84
2022/03/27 12:39:47;;;;;;;24.93;17.20;;;19.10;77.60;;;;;;5059605;28;20184;-84
2022/03/27 12:42:43;;;;;;;25.53;18.30;;;19.30;77.60;;;;;;5059336;28;20185;-83
2022/03/27 12:45:10;;;;;;;25.60;17.60;;;19.60;80.40;;;;;;5046328;28;20246;-84
2022/03/27 12:47:43;;;;;;;27.00;17.57;;;19.30;76.10;;;;;;5059304;28;20640;-82
2022/03/27 12:50:12;;;;;;;28.53;17.47;;;19.40;78.90;;;;;;5060459;28;20189;-83
2022/03/27 12:52:52;;;;;;;24.03;18.27;;;19.70;77.70;;;;;;5058925;28;20210;-83
2022/03/27 12:55:19;;;;;;;22.00;17.00;;;19.50;77.30;;;;;;5059553;28;20178;-83
2022/03/27 12:57:57;;;;;;;25.53;18.13;;;19.70;77.20;;;;;;5058673;28;20174;-83
2022/03/27 13:00:29;;;;;;;26.83;17.43;;;19.60;77.10;;;;;;5059440;28;20735;-83
2022/03/27 13:03:13;;;;;;;22.30;16.00;;;19.60;76.20;;;;;;5058613;28;20200;-83
2022/03/27 13:05:40;;;;;;;22.97;15.13;;;19.70;76.10;;;;;;5058888;28;20231;-82
2022/03/27 13:08:08;;;;;;;21.73;14.87;;;19.70;78.30;;;;;;5059240;28;20550;-83
2022/03/27 13:10:37;;;;;;;24.10;16.07;;;19.60;75.20;;;;;;5055782;28;20595;-82
2022/03/27 13:13:05;;;;;;;26.93;16.20;;;19.80;73.80;;;;;;5057720;28;20213;-82
2022/03/27 13:15:43;;;;;;;22.50;16.50;;;19.70;74.40;;;;;;5059495;28;20174;-83
2022/03/27 13:18:13;;;;;;;23.27;16.67;;;19.50;75.90;;;;;;5058761;28;20261;-83
2022/03/27 13:20:39;;;;;;;25.77;17.30;;;19.40;77.20;;;;;;5058933;28;20182;-83
2022/03/27 13:23:05;;;;;;;22.53;16.20;;;19.70;77.70;;;;;;5058936;28;20193;-84
2022/03/27 13:25:31;;;;;;;21.70;17.00;;;20.10;78.40;;;;;;5059128;28;20182;-83
2022/03/27 13:27:57;;;;;;;20.70;15.40;;;20.30;79.60;;;;;;5058177;28;20604;-83
2022/03/27 13:30:24;;;;;;;24.03;15.70;;;20.10;76.70;;;;;;5057342;28;20640;-82
2022/03/27 13:32:50;;;;;;;22.50;15.00;;;20.10;74.00;;;;;;5056284;28;20217;-83
2022/03/27 13:35:17;;;;;;;20.70;15.90;;;19.90;73.30;;;;;;5057785;28;20205;-83
2022/03/27 13:37:43;;;;;;;21.93;15.43;;;19.80;76.50;;;;;;5057566;28;20178;-84
2022/03/27 13:40:09;;;;;;;23.40;15.83;;;19.70;76.10;;;;;;5058017;28;20178;-82
2022/03/27 13:45:19;;;;;;;19.27;14.23;;;19.60;70.30;;;;;;5061279;28;20200;-83
2022/03/27 13:47:45;;;;;;;18.10;15.17;;;19.50;74.30;;;;;;5061767;28;20660;-83
2022/03/27 13:50:11;;;;;;;20.73;14.57;;;19.60;74.30;;;;;;5059561;28;20177;-83
2022/03/27 13:52:36;;;;;;;19.97;14.23;;;19.60;74.40;;;;;;5061074;28;20667;-83
2022/03/27 13:55:02;;;;;;;16.93;13.73;;;19.70;73.20;;;;;;5061589;28;20200;-83
2022/03/27 13:57:28;;;;;;;20.13;14.57;;;20.10;73.90;;;;;;5060532;28;20178;-83
2022/03/27 13:59:53;;;;;;;17.87;14.33;;;20.20;74.70;;;;;;5060875;28;20648;-82
2022/03/27 14:02:21;;;;;;;20.70;14.97;;;19.90;69.80;;;;;;5060726;28;20198;-83
2022/03/27 14:04:47;;;;;;;17.73;13.93;;;19.60;73.00;;;;;;5058611;28;20178;-82
2022/03/27 14:07:13;;;;;;;20.37;14.03;;;19.60;73.50;;;;;;5060586;28;20259;-82
2022/03/27 14:09:40;;;;;;;16.90;13.53;;;19.90;74.30;;;;;;5057720;28;20197;-83
2022/03/27 14:12:07;;;;;;;19.07;14.97;;;19.80;74.00;;;;;;5060337;28;20213;-82
2022/03/27 14:14:33;;;;;;;19.37;14.73;;;19.70;74.70;;;;;;5060995;28;20656;-84
2022/03/27 14:17:00;;;;;;;17.73;13.57;;;19.60;72.10;;;;;;5060288;28;20208;-83
2022/03/27 14:19:26;;;;;;;20.33;12.70;;;20.00;69.80;;;;;;5060258;28;20541;-82
2022/03/27 14:21:51;;;;;;;19.87;14.03;;;19.90;70.00;;;;;;5060347;28;20224;-83
2022/03/27 14:24:17;;;;;;;16.27;13.20;;;19.80;71.20;;;;;;5059869;28;20186;-82
2022/03/27 14:26:44;;;;;;;15.73;12.97;;;19.80;72.90;;;;;;5058240;28;20641;-84
2022/03/27 14:29:09;;;;;;;21.13;13.67;;;19.80;69.30;;;;;;5058245;28;20185;-86
2022/03/27 14:31:35;;;;;;;21.10;15.10;;;19.70;69.70;;;;;;5062217;28;20218;-86
2022/03/27 14:34:01;;;;;;;19.77;14.37;;;19.60;72.70;;;;;;5051598;28;20285;-85
2022/03/27 14:36:30;;;;;;;21.43;14.57;;;19.50;74.20;;;;;;5064117;28;20679;-80
2022/03/27 14:38:56;;;;;;;22.03;14.63;;;19.90;74.60;;;;;;5064370;28;20176;-85
2022/03/27 14:41:21;;;;;;;18.37;14.03;;;20.10;74.20;;;;;;5051424;28;20222;-85
2022/03/27 14:43:50;;;;;;;18.27;14.30;;;20.00;72.70;;;;;;5050645;28;20227;-84
2022/03/27 14:46:18;;;;;;;16.47;14.03;;;20.30;71.30;;;;;;5064097;28;20173;-86
2022/03/27 14:48:49;;;;;;;15.80;13.40;;;20.10;76.80;;;;;;5063930;28;20180;-80
2022/03/27 14:52:16;;;;;;;17.70;14.27;;;20.20;72.40;;;;;;5001591;23;20231;-84
2022/03/27 14:59:05;;;;;;;18.77;15.75;;;21.80;85.50;;;;;;5130625;27;20388;-87
2022/03/27 15:01:31;;;;;;;16.48;14.65;;;23.60;69.60;;;;;;5116615;28;20898;-86
2022/03/27 15:03:56;;;;;;;16.83;14.50;;;23.70;63.90;;;;;;5093190;28;20383;-86
2022/03/27 15:06:42;;;;;;;13.90;12.50;;;23.00;64.20;;;;;;5110795;28;20392;-82
2022/03/27 15:09:08;;;;;;;16.73;14.93;;;22.50;63.20;;;;;;5094748;28;20398;-87
2022/03/27 15:11:34;;;;;;;18.80;15.68;;;22.10;69.10;;;;;;5079580;28;20373;-86
2022/03/27 15:14:03;;;;;;;17.20;15.40;;;21.80;68.90;;;;;;5114722;28;20867;-86
2022/03/27 15:16:29;;;;;;;18.00;15.35;;;21.60;68.30;;;;;;5081535;28;20430;-86
2022/03/27 15:18:55;;;;;;;16.65;14.90;;;21.50;68.80;;;;;;5078012;28;20385;-87
2022/03/27 15:21:21;;;;;;;20.67;15.85;;;21.50;70.50;;;;;;5088004;28;20377;-86
2022/03/27 15:23:47;;;;;;;16.77;14.77;;;21.60;69.50;;;;;;5098364;28;20386;-86
2022/03/27 15:26:13;;;;;;;22.75;16.17;;;21.50;68.50;;;;;;5116463;28;20388;-87
2022/03/27 15:28:39;;;;;;;18.45;15.23;;;21.40;69.00;;;;;;5116630;28;20788;-86
2022/03/27 15:31:08;;;;;;;17.20;14.70;;;21.30;70.00;;;;;;5094112;28;20406;-87
2022/03/27 15:33:35;;;;;;;17.88;14.43;;;21.30;71.00;;;;;;5076479;28;20421;-86
2022/03/27 15:36:01;;;;;;;15.35;13.73;;;21.30;69.00;;;;;;5096001;28;20379;-87
2022/03/27 15:38:26;;;;;;;17.23;14.30;;;21.40;70.50;;;;;;5078711;28;20413;-87
2022/03/27 15:40:52;;;;;;;17.17;14.70;;;21.40;68.10;;;;;;5113267;28;20463;-86
2022/03/27 15:43:18;;;;;;;16.05;14.45;;;21.20;69.30;;;;;;5112623;28;20456;-87
2022/03/27 15:45:43;;;;;;;16.17;14.47;;;21.20;69.90;;;;;;5112251;28;20431;-87
2022/03/27 15:48:09;;;;;;;16.57;14.87;;;21.30;69.60;;;;;;5083360;28;20948;-87
2022/03/27 15:50:35;;;;;;;16.07;14.40;;;21.30;69.70;;;;;;5090601;28;20801;-87
2022/03/27 15:53:05;;;;;;;18.13;15.07;;;21.20;70.10;;;;;;5112395;28;20377;-87
2022/03/27 15:55:32;;;;;;;15.68;13.95;;;21.10;71.80;;;;;;5111391;28;20385;-87
2022/03/27 15:57:59;;;;;;;15.68;13.88;;;21.30;72.00;;;;;;5096106;28;20426;-88
2022/03/27 16:00:24;;;;;;;16.48;14.77;;;21.40;71.40;;;;;;5090675;28;20383;-87
2022/03/27 16:02:50;;;;;;;16.47;14.17;;;21.30;69.90;;;;;;5090312;28;20908;-87
2022/03/27 16:05:15;;;;;;;18.20;14.35;;;21.30;70.20;;;;;;5109526;28;20374;-87
2022/03/27 16:07:41;;;;;;;15.00;13.50;;;21.30;71.30;;;;;;5090803;28;20406;-87
2022/03/27 16:10:07;;;;;;;15.37;13.77;;;21.30;70.90;;;;;;5069646;28;20389;-87
2022/03/27 16:12:39;;;;;;;15.70;13.80;;;21.20;68.70;;;;;;5080909;28;20876;-83
2022/03/27 16:18:28;;;;;;;14.60;13.15;;;21.10;68.70;;;;;;5075067;28;20942;-82
2022/03/27 16:20:57;;;;;;;14.93;12.98;;;21.10;71.40;;;;;;5076986;28;20406;-81
2022/03/27 16:23:23;;;;;;;14.00;12.70;;;21.10;68.30;;;;;;5096106;28;20413;-86
2022/03/27 16:25:58;;;;;;;14.00;12.53;;;21.10;67.70;;;;;;5073540;28;20392;-81
2022/03/27 16:28:24;;;;;;;16.33;13.23;;;21.10;70.00;;;;;;5051506;28;20883;-86
2022/03/27 16:30:56;;;;;;;14.00;12.60;;;21.00;66.30;;;;;;5083488;28;20391;-81
2022/03/27 16:33:22;;;;;;;13.98;12.57;;;21.00;67.20;;;;;;5083661;28;20380;-85
2022/03/27 16:35:47;;;;;;;15.60;13.07;;;21.00;68.00;;;;;;5076701;28;20391;-85
2022/03/27 16:38:13;;;;;;;15.30;13.73;;;20.90;67.10;;;;;;5074734;28;20404;-86
2022/03/27 16:41:01;;;;;;;16.48;14.52;;;20.80;67.70;;;;;;5092645;28;20451;-82
2022/03/27 16:47:28;;;;;;;15.95;14.40;;;20.70;67.40;;;;;;5049591;28;20391;-82
2022/03/27 16:50:19;;;;;;;15.55;13.80;;;20.50;66.30;;;;;;4984222;28;20428;-82
2022/03/27 16:53:20;;;;;;;14.52;13.13;;;20.80;67.10;;;;;;5075323;28;20386;-82
2022/03/27 16:56:18;;;;;;;14.73;13.20;;;20.50;66.20;;;;;;5080168;28;20407;-82
2022/03/27 16:58:49;;;;;;;13.63;12.32;;;20.50;65.60;;;;;;5058544;28;20410;-85
2022/03/27 17:01:16;;;;;;;14.20;12.13;;;20.40;66.50;;;;;;5090210;28;20392;-85
2022/03/27 17:03:42;;;;;;;13.97;12.57;;;20.40;67.20;;;;;;5082025;28;20409;-85
2022/03/27 17:06:07;;;;;;;18.33;13.57;;;20.20;67.70;;;;;;5075238;28;20793;-85
2022/03/27 17:08:33;;;;;;;17.27;13.97;;;20.10;68.60;;;;;;5068203;28;20443;-84
2022/03/27 17:10:59;;;;;;;18.27;14.50;;;20.00;67.80;;;;;;5084880;28;20426;-85
2022/03/27 17:13:25;;;;;;;14.10;12.60;;;19.90;70.40;;;;;;5089682;28;20949;-84
2022/03/27 17:15:51;;;;;;;14.45;12.95;;;19.80;71.80;;;;;;5087525;28;20375;-85
2022/03/27 17:18:19;;;;;;;12.00;10.82;;;19.80;72.50;;;;;;5089209;28;20402;-85
2022/03/27 17:20:45;;;;;;;12.65;11.35;;;19.70;72.60;;;;;;5092715;28;20746;-85
2022/03/27 17:23:14;;;;;;;12.38;10.88;;;19.60;73.50;;;;;;5082906;28;20470;-85
2022/03/27 17:25:40;;;;;;;12.50;11.30;;;19.60;71.70;;;;;;5082033;28;20410;-86
2022/03/27 17:28:12;;;;;;;12.70;11.43;;;19.40;70.20;;;;;;5078638;28;20383;-87
2022/03/27 17:30:38;;;;;;;13.57;12.27;;;19.30;69.80;;;;;;5074337;28;20394;-84
2022/03/27 17:33:05;;;;;;;12.60;11.50;;;19.30;69.80;;;;;;5105579;28;20408;-86
2022/03/27 17:35:30;;;;;;;12.40;11.20;;;19.30;70.00;;;;;;5097630;28;20387;-87
2022/03/27 17:38:22;;;;;;;12.70;11.50;;;19.20;71.60;;;;;;5075998;28;20787;-87
2022/03/27 17:40:48;;;;;;;12.88;11.57;;;19.00;73.10;;;;;;5073136;28;20743;-87
2022/03/27 17:43:14;;;;;;;13.23;11.40;;;19.00;72.90;;;;;;5088475;28;20389;-87
2022/03/27 17:45:51;;;;;;;13.40;12.00;;;18.90;71.90;;;;;;5075177;28;20406;-87
2022/03/27 17:48:17;;;;;;;11.30;10.30;;;18.80;73.30;;;;;;5094836;28;20379;-86
2022/03/27 17:50:43;;;;;;;11.40;10.20;;;18.60;74.90;;;;;;5092407;28;20412;-86
2022/03/27 17:53:09;;;;;;;11.77;10.07;;;18.40;77.40;;;;;;5082011;28;20421;-86
2022/03/27 17:55:34;;;;;;;9.95;8.70;;;18.40;76.10;;;;;;5099315;28;20385;-86
2022/03/27 17:58:00;;;;;;;9.80;8.43;;;18.40;77.40;;;;;;5084499;28;20432;-86
2022/03/27 18:00:26;;;;;;;11.93;10.50;;;18.30;77.20;;;;;;5076249;28;20386;-89
2022/03/27 18:02:52;;;;;;;11.73;8.93;;;17.90;77.60;;;;;;5077333;28;20384;-88
2022/03/27 18:05:17;;;;;;;9.60;8.43;;;17.80;80.00;;;;;;5083061;28;20382;-88
2022/03/27 18:08:28;;;;;;;9.87;8.60;;;17.70;79.40;;;;;;5095267;28;20391;-83
2022/03/27 18:11:03;;;;;;;12.75;8.43;;;17.60;80.10;;;;;;5094614;28;20481;-83
2022/03/27 18:13:29;;;;;;;10.57;8.88;;;17.50;79.80;;;;;;5099404;28;20378;-87
2022/03/27 18:16:00;;;;;;;10.82;8.98;;;17.40;81.10;;;;;;5081298;28;20753;-84
2022/03/27 18:18:32;;;;;;;9.70;8.73;;;17.30;80.20;;;;;;5087133;28;20415;-83
2022/03/27 18:21:20;;;;;;;10.55;8.57;;;17.20;81.00;;;;;;5090518;28;20386;-83
2022/03/27 18:24:23;;;;;;;9.75;8.85;;;16.90;81.50;;;;;;5079528;28;20390;-84
2022/03/27 18:27:20;;;;;;;10.52;9.00;;;16.70;82.70;;;;;;5081555;28;20752;-84
2022/03/27 18:30:13;;;;;;;10.47;9.43;;;16.80;82.70;;;;;;5090687;28;20890;-87
2022/03/27 18:32:57;;;;;;;10.65;9.55;;;16.70;83.40;;;;;;5085824;28;20899;-87
2022/03/27 18:35:26;;;;;;;11.00;9.77;;;16.50;83.40;;;;;;5093219;28;20726;-87
2022/03/27 18:41:53;;;;;;;;;;;;;;;;;;;;;
2022/03/27 18:44:39;;;;;;;9.93;9.03;;;16.30;85.10;;;;;;5051606;28;20553;-87
2022/03/27 18:47:31;;;;;;;12.00;9.70;;;16.30;85.50;;;;;;5064106;28;20889;-86
2022/03/27 18:50:12;;;;;;;10.68;9.65;;;15.90;84.90;;;;;;5053023;28;20409;-87
2022/03/27 18:52:44;;;;;;;10.23;9.20;;;16.20;86.00;;;;;;5076153;28;20392;-87
2022/03/27 18:56:10;;;;;;;14.45;11.65;;;16.00;85.60;;;;;;5049756;28;20397;-86
2022/03/27 18:58:56;;;;;;;16.10;13.25;;;15.80;85.40;;;;;;4984164;28;21010;-88
2022/03/27 19:01:36;;;;;;;13.60;12.23;;;15.80;85.60;;;;;;5061395;28;20439;-87
2022/03/27 19:04:02;;;;;;;15.23;13.60;;;15.90;86.70;;;;;;5077077;28;20393;-86
2022/03/27 19:06:28;;;;;;;13.63;11.80;;;15.80;86.10;;;;;;5094492;28;20381;-87
2022/03/27 19:08:54;;;;;;;14.53;11.30;;;15.90;86.30;;;;;;5059974;28;20804;-87
2022/03/27 19:12:39;;;;;;;;;;;;;;;;;;;;;
2022/03/27 19:18:05;;;;;;;16.17;12.32;;;16.00;86.90;;;;;;5054059;28;20489;-86
2022/03/27 19:20:31;;;;;;;13.43;12.02;;;15.80;87.30;;;;;;5054155;28;20389;-86
2022/03/27 19:23:03;;;;;;;14.63;12.38;;;15.70;88.00;;;;;;5052621;28;20902;-88
2022/03/27 19:25:31;;;;;;;18.15;13.32;;;15.60;87.00;;;;;;5054066;28;20396;-86
2022/03/27 19:27:57;;;;;;;20.77;16.65;;;15.40;86.60;;;;;;5052792;28;20978;-86
2022/03/27 19:30:23;;;;;;;18.58;15.07;;;15.60;85.80;;;;;;5053978;28;20476;-87
2022/03/27 19:32:50;;;;;;;20.07;14.60;;;15.70;87.00;;;;;;5053722;28;20468;-86
2022/03/27 19:35:16;;;;;;;20.43;14.33;;;15.60;87.90;;;;;;5053897;28;20472;-87
2022/03/27 19:37:42;;;;;;;15.30;13.73;;;15.40;87.60;;;;;;5054039;28;20431;-87
2022/03/27 19:40:09;;;;;;;18.00;13.85;;;15.40;87.60;;;;;;5052054;28;20401;-87
2022/03/27 19:42:36;;;;;;;16.92;13.48;;;15.30;87.40;;;;;;5052200;28;20382;-87
2022/03/27 19:45:04;;;;;;;13.88;12.10;;;15.30;87.60;;;;;;5048036;28;20416;-87
2022/03/27 19:47:30;;;;;;;15.30;11.60;;;15.20;88.50;;;;;;5056199;28;20893;-86
2022/03/27 19:49:56;;;;;;;16.08;12.13;;;14.90;89.30;;;;;;5055705;28;20433;-86
2022/03/27 19:52:22;;;;;;;13.80;11.70;;;14.80;90.40;;;;;;5058964;28;20415;-86
2022/03/27 19:54:48;;;;;;;13.60;12.20;;;14.60;90.40;;;;;;5059552;28;20397;-86
2022/03/27 19:57:14;;;;;;;13.65;12.10;;;14.50;90.70;;;;;;5052810;28;20410;-86
2022/03/27 19:59:39;;;;;;;15.90;11.75;;;14.50;90.60;;;;;;5055999;28;20518;-87
2022/03/27 20:02:05;;;;;;;15.05;12.23;;;14.30;90.40;;;;;;5058017;28;20384;-87
2022/03/27 20:04:31;;;;;;;15.37;11.50;;;14.20;90.90;;;;;;5056308;28;20750;-86
2022/03/27 20:06:57;;;;;;;12.85;11.52;;;14.10;91.10;;;;;;5058759;28;20472;-87
2022/03/27 20:09:22;;;;;;;15.85;11.88;;;14.20;90.60;;;;;;5056286;28;20416;-87
2022/03/27 20:11:48;;;;;;;13.30;11.95;;;14.20;90.50;;;;;;5060360;28;20397;-87
2022/03/27 20:14:15;;;;;;;16.95;11.85;;;14.20;90.50;;;;;;5058979;28;20883;-87
2022/03/27 20:16:41;;;;;;;19.05;14.23;;;14.00;91.10;;;;;;5061118;28;20393;-87
2022/03/27 20:19:06;;;;;;;13.90;12.50;;;14.00;91.20;;;;;;5055838;28;20752;-87
2022/03/27 20:21:32;;;;;;;14.85;13.02;;;13.90;91.50;;;;;;5061630;28;20748;-87
2022/03/27 20:24:01;;;;;;;17.38;13.38;;;13.70;91.40;;;;;;5059740;28;20472;-87
2022/03/27 20:26:27;;;;;;;20.83;13.52;;;13.60;91.60;;;;;;5061268;28;20381;-87
2022/03/27 20:28:52;;;;;;;17.58;13.90;;;13.60;91.90;;;;;;5058686;28;20385;-86
2022/03/27 20:31:18;;;;;;;24.50;16.93;;;13.50;92.00;;;;;;5056529;28;20733;-87
2022/03/27 20:33:43;;;;;;;17.60;13.70;;;13.60;91.60;;;;;;5055453;28;20389;-87
2022/03/27 20:36:09;;;;;;;22.93;16.20;;;13.50;91.90;;;;;;5057489;28;20442;-87
2022/03/27 20:38:35;;;;;;;18.10;15.63;;;13.50;91.70;;;;;;5055597;28;20400;-87
2022/03/27 20:41:00;;;;;;;24.65;16.60;;;13.50;92.00;;;;;;5057394;28;20388;-87
2022/03/27 20:43:26;;;;;;;18.63;15.57;;;13.40;91.70;;;;;;5056028;28;20378;-87
2022/03/27 20:45:54;;;;;;;23.98;16.10;;;13.40;91.90;;;;;;5054372;28;20394;-87
2022/03/27 20:48:20;;;;;;;18.92;16.02;;;13.50;91.90;;;;;;5056871;28;20400;-87
2022/03/27 20:50:49;;;;;;;21.60;15.45;;;13.40;92.20;;;;;;5056930;28;20385;-87
2022/03/27 20:53:15;;;;;;;17.55;15.13;;;13.40;91.80;;;;;;5067778;28;20480;-86
2022/03/27 20:55:42;;;;;;;19.88;15.23;;;13.30;91.80;;;;;;5054491;28;20805;-87
2022/03/27 20:58:10;;;;;;;19.48;14.88;;;13.20;92.10;;;;;;5055086;28;20409;-86
2022/03/27 21:00:37;;;;;;;18.95;14.55;;;13.10;92.50;;;;;;5054867;28;20377;-87
2022/03/27 21:03:03;;;;;;;18.47;15.27;;;13.10;92.20;;;;;;5046780;28;20454;-87
2022/03/27 21:05:29;;;;;;;17.85;14.80;;;13.00;92.90;;;;;;5055381;28;20385;-87
2022/03/27 21:07:55;;;;;;;18.83;14.83;;;12.80;92.70;;;;;;5069873;28;20495;-87
2022/03/27 21:10:20;;;;;;;18.10;15.23;;;12.70;92.90;;;;;;5055747;28;20385;-87
2022/03/27 21:12:47;;;;;;;19.40;15.13;;;12.70;93.00;;;;;;5056755;28;20400;-87
2022/03/27 21:15:13;;;;;;;20.13;15.70;;;12.60;92.70;;;;;;5055923;28;20401;-87
2022/03/27 21:17:39;;;;;;;23.40;18.00;;;12.70;92.30;;;;;;5055587;28;20887;-87
2022/03/27 21:20:05;;;;;;;23.93;17.67;;;12.50;92.30;;;;;;5055820;28;20424;-87
2022/03/27 21:22:31;;;;;;;21.23;16.65;;;12.50;92.10;;;;;;5055756;28;20389;-87
2022/03/27 21:24:57;;;;;;;20.15;16.10;;;12.50;91.90;;;;;;5054479;28;20443;-87
2022/03/27 21:27:23;;;;;;;19.10;15.67;;;12.50;91.60;;;;;;5054787;28;20397;-87
2022/03/27 21:29:48;;;;;;;18.70;15.37;;;12.60;91.40;;;;;;5055704;28;20389;-87
2022/03/27 21:32:14;;;;;;;20.83;15.20;;;12.50;91.40;;;;;;5053522;28;20417;-87
2022/03/27 21:34:42;;;;;;;18.27;15.37;;;12.50;91.40;;;;;;5053776;28;20423;-87
2022/03/27 21:37:08;;;;;;;17.98;14.70;;;12.50;91.90;;;;;;5055251;28;20401;-87
2022/03/27 21:39:34;;;;;;;17.38;14.60;;;12.50;91.40;;;;;;5053912;28;20393;-87
2022/03/27 21:42:02;;;;;;;16.42;14.45;;;12.40;91.60;;;;;;5053282;28;20389;-87
2022/03/27 21:44:32;;;;;;;16.45;14.75;;;12.40;91.30;;;;;;5054615;28;20737;-87
2022/03/27 21:46:57;;;;;;;18.10;14.25;;;12.40;91.40;;;;;;5053702;28;20385;-87
2022/03/27 21:49:27;;;;;;;17.63;14.18;;;12.40;91.70;;;;;;5053532;28;20401;-87
2022/03/27 21:51:54;;;;;;;16.27;14.05;;;12.30;91.70;;;;;;5054623;28;20385;-87